Flight Track Log - Related Links

Times and Time Zones

All times are in EDT time to prevent confusion due to time zone crossing. See the SWA868 flight status page for this flight to view local times or setup timezone preferences in your user account.

Time Position Orientation Groundspeed Altitude Reporting Facility
EDT Latitude Longitude Course Direction KTS MPH feet Rate Location/Type
Sun 04:26:03 PM 39.1833 -76.7167 270° West 168 193 1,700  Level Potomac TRACON
Sun 04:27:03 PM 39.1833 -76.7833 270° West 215 247 3,700 2,033 Climbing Potomac TRACON
Sun 04:28:04 PM 39.2000 -76.8667 284° West 263 303 5,800 2,579 Climbing Potomac TRACON
Sun 04:29:04 PM 39.2167 -76.9667 282° West 271 312 8,900 2,698 Climbing Potomac TRACON
Sun 04:30:53 PM 39.2033 -77.1558 265° West 300 345 13,400 2,769 Climbing Washington Center
Sun 04:31:53 PM 39.1231 -77.2317 216° Southwest 309 356 16,700 3,000 Climbing Washington Center
Sun 04:32:53 PM 39.0656 -77.3319 234° Southwest 333 383 19,400 2,700 Climbing Washington Center
Sun 04:33:53 PM 39.0364 -77.4569 253° West 352 405 22,100 2,600 Climbing Washington Center
Sun 04:34:53 PM 39.0050 -77.5978 254° West 370 426 24,600 2,050 Climbing Washington Center
Sun 04:35:53 PM 38.9739 -77.7169 251° West 381 438 26,200 1,750 Climbing Washington Center
Sun 04:36:53 PM 38.9378 -77.8653 253° West 390 449 28,100 1,950 Climbing Washington Center
Sun 04:37:53 PM 38.9058 -78.0058 254° West 398 458 30,100 1,950 Climbing Washington Center
Sun 04:38:53 PM 38.8719 -78.1381 252° West 398 458 32,000 950 Climbing Washington Center
Sun 04:39:53 PM 38.8522 -78.2706 259° West 388 447 32,000  Level Washington Center
Sun 04:40:53 PM 38.8511 -78.4119 269° West 388 447 32,000 900 Level Washington Center
Sun 04:41:53 PM 38.8500 -78.5478 269° West 388 447 33,800 1,700 Climbing Washington Center
Sun 04:42:53 PM 38.8486 -78.6836 269° West 382 440 35,400 1,500 Climbing Washington Center
Sun 04:43:53 PM 38.8472 -78.8169 269° West 382 440 36,800 1,300 Climbing Washington Center
Sun 04:44:53 PM 38.8456 -78.9500 269° West 382 440 38,000 600 Climbing Washington Center
Sun 04:45:53 PM 38.8439 -79.0833 269° West 382 440 38,000  Level Washington Center
Sun 04:46:53 PM 38.8381 -79.2136 267° West 382 440 38,000  Level Washington Center
Sun 04:47:53 PM 38.8175 -79.3406 258° West 382 440 38,000  Level Washington Center
Sun 04:48:53 PM 38.7947 -79.4672 257° West 376 433 38,000  Level Washington Center
Sun 04:49:53 PM 38.7714 -79.6017 257° West 376 433 38,000  Level Washington Center
Sun 04:50:53 PM 38.7464 -79.7308 256° West 376 433 38,000  Level Washington Center
Sun 04:52:41 PM 38.7019 -79.9525 256° West 373 429 38,000  Level Indianapolis Center
Sun 04:53:43 PM 38.6792 -80.0814 257° West 371 427 38,000  Level Indianapolis Center
Sun 04:54:45 PM 38.6550 -80.2103 257° West 372 428 38,000  Level Indianapolis Center
Sun 04:55:47 PM 38.6314 -80.3394 257° West 371 427 38,000  Level Indianapolis Center
Sun 04:56:49 PM 38.6058 -80.4683 256° West 373 429 38,000  Level Indianapolis Center
Sun 04:57:51 PM 38.5817 -80.5975 257° West 374 430 38,000  Level Indianapolis Center
Sun 04:59:00 PM 38.5417 -80.7280 256° West  Level FlightAware Approximate
Sun 04:59:55 PM 38.5269 -80.8833 256° West 375 432 38,000  Level Indianapolis Center
Sun 05:00:57 PM 38.5003 -81.0142 255° West 380 437 38,000  Level Indianapolis Center
Sun 05:01:59 PM 38.4753 -81.1453 256° West 378 435 38,000  Level Indianapolis Center
Sun 05:03:01 PM 38.4494 -81.2781 256° West 381 438 38,000  Level Indianapolis Center
Sun 05:04:03 PM 38.4219 -81.4089 255° West 379 436 38,000  Level Indianapolis Center
Sun 05:05:05 PM 38.3972 -81.5417 257° West 381 438 38,000  Level Indianapolis Center
Sun 05:06:07 PM 38.3694 -81.6744 255° West 383 441 38,000  Level Indianapolis Center
Sun 05:07:08 PM 38.3406 -81.8058 254° West 382 440 38,000  Level Indianapolis Center
Sun 05:08:10 PM 38.3036 -81.9344 250° West 385 443 38,000  Level Indianapolis Center
Sun 05:09:12 PM 38.2600 -82.0897 250° West 387 445 38,000  Level Indianapolis Center
Sun 05:10:14 PM 38.2236 -82.2208 251° West 392 451 38,000  Level Indianapolis Center
Sun 05:11:16 PM 38.1861 -82.3511 250° West 392 451 38,000  Level Indianapolis Center
Sun 05:12:18 PM 38.1492 -82.4819 250° West 393 452 38,000  Level Indianapolis Center
Sun 05:13:20 PM 38.1106 -82.6175 250° West 392 451 38,000  Level Indianapolis Center
Sun 05:14:21 PM 38.0728 -82.7444 249° West 388 447 38,000  Level Indianapolis Center
Sun 05:15:23 PM 38.0350 -82.8736 250° West 390 449 38,000  Level Indianapolis Center
Sun 05:16:25 PM 37.9922 -83.0236 250° West 390 449 38,000  Level Indianapolis Center
Sun 05:17:27 PM 37.9542 -83.1519 249° West 389 448 38,000  Level Indianapolis Center
Sun 05:18:28 PM 37.9161 -83.2814 250° West 391 450 38,000  Level Indianapolis Center
Sun 05:19:30 PM 37.8775 -83.4133 250° West 397 457 38,000 -48 Level Indianapolis Center
Sun 05:20:32 PM 37.8383 -83.5419 249° West 395 455 37,900 -484 Descending Indianapolis Center
Sun 05:21:34 PM 37.8000 -83.6719 250° West 395 455 37,000 -919 Descending Indianapolis Center
Sun 05:22:36 PM 37.7819 -83.8325 262° West 399 459 36,000 -488 Descending Indianapolis Center
Sun 05:23:37 PM 37.7747 -83.9719 266° West 398 458 36,000 -439 Level Indianapolis Center
Sun 05:24:39 PM 37.7675 -84.1100 266° West 395 455 35,100 -919 Descending Indianapolis Center
Sun 05:25:41 PM 37.7614 -84.2497 267° West 397 457 34,100 -968 Descending Indianapolis Center
Sun 05:26:43 PM 37.7547 -84.3881 267° West 395 455 33,100 -968 Descending Indianapolis Center
Sun 05:27:45 PM 37.6831 -84.4869 228° Southwest 389 448 32,100 -537 Descending Indianapolis Center
Sun 05:28:46 PM 37.5856 -84.5853 219° Southwest 387 445 32,000 -49 Descending Indianapolis Center
Sun 05:29:48 PM 37.5008 -84.6706 219° Southwest 388 447 32,000  Level Indianapolis Center
Sun 05:30:50 PM 37.4164 -84.7547 218° Southwest 387 445 32,000  Level Indianapolis Center
Sun 05:31:52 PM 37.3311 -84.8375 218° Southwest 386 444 32,000  Level Indianapolis Center
Sun 05:32:54 PM 37.2458 -84.9217 218° Southwest 388 447 32,000 -435 Level Indianapolis Center
Sun 05:33:56 PM 37.1456 -85.0206 218° Southwest 392 451 31,100 -976 Descending Indianapolis Center
Sun 05:34:57 PM 37.0589 -85.1058 218° Southwest 395 455 30,000 -1,463 Descending Indianapolis Center
Sun 05:35:59 PM 36.9833 -85.1792 218° Southwest 394 453 28,100 -2,177 Descending Indianapolis Center
Sun 05:37:01 PM 36.8850 -85.2733 217° Southwest 378 435 25,500 -2,274 Descending Indianapolis Center
Sun 05:38:03 PM 36.8053 -85.3503 218° Southwest 365 420 23,400 -1,935 Descending Indianapolis Center
Sun 05:38:34 PM 36.7697 -85.3839 217° Southwest 377 434 22,500 -923 Descending Memphis Center
Sun 05:39:34 PM 36.7092 -85.4911 235° Southwest 357 411 22,000 -250 Descending Memphis Center
Sun 05:40:34 PM 36.6608 -85.5872 238° Southwest 357 411 22,000 -900 Level Memphis Center
Sun 05:41:34 PM 36.6106 -85.6911 239° Southwest 362 417 20,200 -1,750 Descending Memphis Center
Sun 05:42:34 PM 36.5644 -85.7919 240° Southwest 350 403 18,500 -1,250 Descending Memphis Center
Sun 05:43:34 PM 36.5142 -85.9006 240° Southwest 336 387 17,700 -2,000 Descending Memphis Center
Sun 05:44:34 PM 36.4678 -86.0011 240° Southwest 336 387 14,500 -2,500 Descending Memphis Center
Sun 05:45:34 PM 36.4189 -86.0967 238° Southwest 341 392 12,700 -1,850 Descending Memphis Center
Sun 05:46:34 PM 36.3761 -86.1892 240° Southwest 321 369 10,800 -1,300 Descending Memphis Center
Sun 05:47:34 PM 36.3333 -86.2789 239° Southwest 312 359 10,100 -800 Descending Memphis Center
Sun 05:48:34 PM 36.2981 -86.3503 239° Southwest 290 334 9,200 -1,100 Descending Memphis Center
Sun 05:49:34 PM 36.2608 -86.4267 239° Southwest 272 313 7,900 -1,300 Descending Memphis Center
Sun 05:50:34 PM 36.2236 -86.5031 239° Southwest 272 313 6,600 -1,050 Descending Memphis Center
Sun 05:51:34 PM 36.1644 -86.5392 206° Southwest 245 282 5,800 -800 Descending Memphis Center
Sun 05:52:34 PM 36.0986 -86.5681 200° South 234 269 5,000 -750 Descending Memphis Center
Sun 05:53:34 PM 36.0408 -86.5886 196° South 229 264 4,300 -750 Descending Memphis Center
Sun 05:54:34 PM 35.9958 -86.6217 211° Southwest 211 243 3,500 -800 Descending Memphis Center
Sun 05:55:34 PM 36.0061 -86.6828 282° West 167 192 2,700 -800 Descending Memphis Center
Sun 05:56:34 PM 36.0503 -86.6936 349° North 133 153 1,900 -800 Descending Memphis Center
Sun 05:59:00 PM 36.1167 -86.6667 North  Level FlightAware Approximate
Sun 06:06:00 PM 36.1245 -86.6782 North  Level Estimated
Sun 06:07:00 PM 36.1245 -86.6782 North  Level Estimated
Sun 06:08:00 PM 36.1245 -86.6782 North  Level Estimated
Sun 06:09:00 PM 36.1245 -86.6782 North  Level Estimated
Sun 06:10:00 PM 36.1245 -86.6782 North  Level Estimated
Sun 06:11:00 PM 36.1245 -86.6782 North  Level Estimated
Sun 06:12:00 PM 36.1245 -86.6782 North  Level Estimated
Sun 06:13:00 PM 36.1245 -86.6782 North  Level Estimated
Sun 06:14:00 PM 36.1245 -86.6782 North  Level Estimated

Login

Don't have an account? Register now (free) for customized features, flight alerts, and more!